createdAt,value
2024-01-05T00:00:14.787Z,3.10
2024-01-05T00:02:42.380Z,2.10
2024-01-05T00:05:10.040Z,3.80
2024-01-05T00:07:37.605Z,3.30
2024-01-05T00:10:05.151Z,1.90
2024-01-05T00:12:32.885Z,2.30
2024-01-05T00:15:00.719Z,2.50
2024-01-05T00:17:28.440Z,2.70
2024-01-05T00:19:56.065Z,2.70
2024-01-05T00:22:23.672Z,2.80
2024-01-05T00:24:51.644Z,2.80
2024-01-05T00:27:19.259Z,2.70
2024-01-05T00:29:46.954Z,2.50
2024-01-05T00:32:17.098Z,2.80
2024-01-05T00:34:46.273Z,3.00
2024-01-05T00:37:13.939Z,3.30
2024-01-05T00:39:41.622Z,3.20
2024-01-05T00:42:09.265Z,3.90
2024-01-05T00:44:37.118Z,3.20
2024-01-05T00:47:04.683Z,2.90
2024-01-05T00:49:32.377Z,2.80
2024-01-05T00:52:00.012Z,2.60
2024-01-05T00:54:27.506Z,2.60
2024-01-05T00:56:55.150Z,2.40
2024-01-05T00:59:22.893Z,2.80
2024-01-05T01:01:50.547Z,2.80
2024-01-05T01:04:18.240Z,4.10
2024-01-05T01:06:46.183Z,3.10
2024-01-05T01:09:14.384Z,3.50
2024-01-05T01:11:42.041Z,5.40
2024-01-05T01:14:09.580Z,3.00
2024-01-05T01:16:37.243Z,3.30
2024-01-05T01:19:05.219Z,2.50
2024-01-05T01:21:33.125Z,3.00
2024-01-05T01:24:00.980Z,3.20
2024-01-05T01:26:28.799Z,4.40
2024-01-05T01:28:56.349Z,3.40
2024-01-05T01:31:23.972Z,3.70
2024-01-05T01:33:52.069Z,3.00
2024-01-05T01:36:19.892Z,3.70
2024-01-05T01:38:47.515Z,3.00
2024-01-05T01:41:15.168Z,3.40
2024-01-05T01:43:42.833Z,3.50
2024-01-05T01:46:10.387Z,5.20
2024-01-05T01:48:38.083Z,3.70
2024-01-05T01:51:05.873Z,4.20
2024-01-05T01:53:33.955Z,5.20
2024-01-05T01:56:01.661Z,3.90
2024-01-05T01:58:29.312Z,4.20
2024-01-05T02:00:57.037Z,4.40
2024-01-05T02:03:24.732Z,4.20
2024-01-05T02:05:52.432Z,3.30
2024-01-05T02:08:20.176Z,4.10
2024-01-05T02:10:47.716Z,5.10
2024-01-05T02:13:15.381Z,4.40
2024-01-05T02:15:42.940Z,3.50
2024-01-05T02:18:10.626Z,4.50
2024-01-05T02:20:38.373Z,4.80
2024-01-05T02:23:06.024Z,4.30
2024-01-05T02:25:33.598Z,5.20
2024-01-05T02:28:01.250Z,3.90
2024-01-05T02:30:29.013Z,3.50
2024-01-05T02:32:56.826Z,4.10
2024-01-05T02:35:24.544Z,4.20
2024-01-05T02:37:52.196Z,3.40
2024-01-05T02:40:19.768Z,5.80
2024-01-05T02:42:47.422Z,4.60
2024-01-05T02:45:15.016Z,5.10
2024-01-05T02:47:42.677Z,5.10
2024-01-05T02:50:10.404Z,5.90
2024-01-05T02:52:38.065Z,4.80
2024-01-05T02:55:05.620Z,5.80
2024-01-05T02:57:33.264Z,4.80
2024-01-05T03:00:01.113Z,5.90
2024-01-05T03:02:28.812Z,4.70
2024-01-05T03:04:56.505Z,6.00
2024-01-05T03:07:24.234Z,6.70
2024-01-05T03:09:51.918Z,4.70
2024-01-05T03:12:19.497Z,5.00
2024-01-05T03:14:47.526Z,8.00
2024-01-05T03:17:15.082Z,4.80
2024-01-05T03:19:42.616Z,4.80
2024-01-05T03:22:10.502Z,5.80
2024-01-05T03:24:38.062Z,5.30
2024-01-05T03:27:05.732Z,4.90
2024-01-05T03:29:33.412Z,6.40
2024-01-05T03:32:01.046Z,4.20
2024-01-05T03:34:28.535Z,5.60
2024-01-05T03:36:56.482Z,4.00
2024-01-05T03:39:23.972Z,5.00
2024-01-05T03:41:51.625Z,4.50
2024-01-05T03:44:19.252Z,5.10
2024-01-05T03:46:46.814Z,5.40
2024-01-05T03:49:14.535Z,4.20
2024-01-05T03:51:42.238Z,4.40
2024-01-05T03:54:09.874Z,5.50
2024-01-05T03:56:37.673Z,5.80
2024-01-05T03:59:05.337Z,5.10
2024-01-05T04:01:32.918Z,5.00
2024-01-05T04:04:01.029Z,4.60
2024-01-05T04:06:28.683Z,4.60
2024-01-05T04:08:56.398Z,6.60
2024-01-05T04:11:24.049Z,5.00
2024-01-05T04:13:51.708Z,6.30
2024-01-05T04:16:19.362Z,5.70
2024-01-05T04:18:47.044Z,4.90
2024-01-05T04:21:14.724Z,5.10
2024-01-05T04:23:42.358Z,5.40
2024-01-05T04:26:10.011Z,4.60
2024-01-05T04:28:37.565Z,5.70
2024-01-05T04:31:05.283Z,5.10
2024-01-05T04:33:32.990Z,5.90
2024-01-05T04:36:00.674Z,5.40
2024-01-05T04:38:28.315Z,5.10
2024-01-05T04:40:55.874Z,6.50
2024-01-05T04:43:23.852Z,6.90
2024-01-05T04:45:51.507Z,5.40
2024-01-05T04:48:19.178Z,5.30
2024-01-05T04:50:46.830Z,5.30
2024-01-05T04:53:14.375Z,6.50
2024-01-05T04:55:41.946Z,6.40
2024-01-05T04:58:09.502Z,4.60
2024-01-05T05:00:37.892Z,7.10
2024-01-05T05:03:05.629Z,5.20
2024-01-05T05:05:33.541Z,8.70
2024-01-05T05:08:01.096Z,9.10
2024-01-05T05:10:28.722Z,7.60
2024-01-05T05:12:56.289Z,8.60
2024-01-05T05:15:23.897Z,7.50
2024-01-05T05:17:54.333Z,9.50
2024-01-05T05:20:22.259Z,9.80
2024-01-05T05:22:49.809Z,8.00
2024-01-05T05:25:17.692Z,9.10
2024-01-05T05:27:45.328Z,7.20
2024-01-05T05:30:13.003Z,7.70
2024-01-05T05:32:40.767Z,6.90
2024-01-05T05:35:08.360Z,6.50
2024-01-05T05:37:35.965Z,5.90
2024-01-05T05:40:03.529Z,7.70
2024-01-05T05:42:31.267Z,7.70
2024-01-05T05:44:58.992Z,6.90
2024-01-05T05:47:26.657Z,7.80
2024-01-05T05:49:54.472Z,8.60
2024-01-05T05:52:22.239Z,7.70
2024-01-05T05:54:49.804Z,9.30
2024-01-05T05:57:17.415Z,8.30
2024-01-05T05:59:45.130Z,11.80
2024-01-05T06:02:12.789Z,9.90
2024-01-05T06:04:40.805Z,9.00
2024-01-05T06:07:08.474Z,10.00
2024-01-05T06:09:36.202Z,10.20
2024-01-05T06:12:03.906Z,10.70
2024-01-05T06:14:31.403Z,13.40
2024-01-05T06:16:59.078Z,14.30
2024-01-05T06:19:26.812Z,19.60
2024-01-05T06:21:54.487Z,23.10
2024-01-05T06:24:22.033Z,24.00
2024-01-05T06:26:49.731Z,28.50
2024-01-05T06:29:17.713Z,36.80
2024-01-05T06:31:45.760Z,39.40
2024-01-05T06:34:13.992Z,49.30
2024-01-05T06:36:41.761Z,43.60
2024-01-05T06:39:09.571Z,46.00
2024-01-05T06:41:37.204Z,29.20
2024-01-05T06:44:04.867Z,19.80
2024-01-05T06:46:32.438Z,16.10
2024-01-05T06:49:00.410Z,11.20
2024-01-05T06:51:28.190Z,23.20
2024-01-05T06:53:56.273Z,23.10
2024-01-05T06:56:23.991Z,19.30
2024-01-05T06:58:51.545Z,19.90
2024-01-05T07:01:19.284Z,18.50
2024-01-05T07:03:47.025Z,16.50
2024-01-05T07:06:14.692Z,12.20
2024-01-05T07:08:42.426Z,12.50
2024-01-05T07:11:10.064Z,9.20
2024-01-05T07:13:37.734Z,12.40
2024-01-05T07:16:05.296Z,10.70
2024-01-05T07:18:33.075Z,15.10
2024-01-05T07:21:00.736Z,26.00
2024-01-05T07:23:28.374Z,32.50
2024-01-05T07:25:55.929Z,33.30
2024-01-05T07:28:23.588Z,41.10
2024-01-05T07:30:51.193Z,29.70
2024-01-05T07:33:19.279Z,23.60
2024-01-05T07:35:47.085Z,19.50
2024-01-05T07:38:14.657Z,22.30
2024-01-05T07:40:42.351Z,20.30
2024-01-05T07:43:09.970Z,15.70
2024-01-05T07:45:37.653Z,11.60
2024-01-05T07:48:05.396Z,11.90
2024-01-05T07:50:33.055Z,13.50
2024-01-05T07:53:00.610Z,19.90
2024-01-05T07:55:28.200Z,26.20
2024-01-05T07:57:55.863Z,18.80
2024-01-05T08:00:23.629Z,19.80
2024-01-05T08:02:51.413Z,16.20
2024-01-05T08:05:19.161Z,14.70
2024-01-05T08:07:46.991Z,12.70
2024-01-05T08:10:14.555Z,12.30
2024-01-05T08:12:42.207Z,10.90
2024-01-05T08:15:10.242Z,12.00
2024-01-05T08:17:38.116Z,12.60
2024-01-05T08:20:05.900Z,11.20
2024-01-05T08:22:33.593Z,12.20
2024-01-05T08:25:01.131Z,12.80
2024-01-05T08:27:28.815Z,13.00
2024-01-05T08:29:56.474Z,12.10
2024-01-05T08:32:24.118Z,14.30
2024-01-05T08:34:52.107Z,13.80
2024-01-05T08:37:19.838Z,13.30
2024-01-05T08:39:47.449Z,13.20
2024-01-05T08:42:15.529Z,16.00
2024-01-05T08:44:43.443Z,15.60
2024-01-05T08:47:11.115Z,14.70
2024-01-05T08:49:39.117Z,11.90
2024-01-05T08:52:06.933Z,14.20
2024-01-05T08:54:34.942Z,16.20
2024-01-05T08:57:02.575Z,20.70
2024-01-05T08:59:36.515Z,13.00
2024-01-05T09:02:04.261Z,12.30
2024-01-05T09:04:31.794Z,16.40
2024-01-05T09:06:59.462Z,12.90
2024-01-05T09:09:27.071Z,13.90
2024-01-05T09:11:54.811Z,17.80
2024-01-05T09:14:22.969Z,15.20
2024-01-05T09:16:50.521Z,14.70
2024-01-05T09:19:19.482Z,23.00
2024-01-05T09:21:48.803Z,18.60
2024-01-05T09:24:16.372Z,42.40
2024-01-05T09:26:44.025Z,46.60
2024-01-05T09:29:11.587Z,23.80
2024-01-05T09:31:39.280Z,20.60
2024-01-05T09:34:07.074Z,22.20
2024-01-05T09:36:34.777Z,29.20
2024-01-05T09:39:02.553Z,29.30
2024-01-05T09:41:30.501Z,31.60
2024-01-05T09:43:58.349Z,17.80
2024-01-05T09:46:26.030Z,27.40
2024-01-05T09:48:55.132Z,23.30
2024-01-05T09:51:23.237Z,16.80
2024-01-05T09:53:50.973Z,15.00
2024-01-05T09:56:18.528Z,22.40
2024-01-05T09:58:46.207Z,20.30
2024-01-05T10:01:14.088Z,18.10
2024-01-05T10:03:41.803Z,24.30
2024-01-05T10:06:09.605Z,24.70
2024-01-05T10:08:37.335Z,30.20
2024-01-05T10:11:04.906Z,27.10
2024-01-05T10:13:32.453Z,25.40
2024-01-05T10:16:00.123Z,22.20
2024-01-05T10:18:27.785Z,23.50
2024-01-05T10:20:55.441Z,21.80
2024-01-05T10:23:23.319Z,26.40
2024-01-05T10:25:50.974Z,26.80
2024-01-05T10:28:18.514Z,26.20
2024-01-05T10:30:46.274Z,23.00
2024-01-05T10:33:14.125Z,23.00
2024-01-05T10:38:09.684Z,21.00
2024-01-05T10:40:37.572Z,25.60
2024-01-05T10:43:05.310Z,27.00
2024-01-05T10:45:32.941Z,23.50
2024-01-05T10:48:00.697Z,19.30
2024-01-05T10:50:28.490Z,20.00
2024-01-05T10:52:56.064Z,18.40
2024-01-05T10:55:23.832Z,18.70
2024-01-05T10:57:51.573Z,31.90
2024-01-05T11:00:19.160Z,26.70
2024-01-05T11:02:47.103Z,21.70
2024-01-05T11:05:15.435Z,24.00
2024-01-05T11:07:43.844Z,20.10
2024-01-05T11:10:14.703Z,19.00
2024-01-05T11:12:42.422Z,19.90
2024-01-05T11:15:10.168Z,20.50
2024-01-05T11:17:37.867Z,20.30
2024-01-05T11:20:05.660Z,20.80
2024-01-05T11:22:33.423Z,19.80
2024-01-05T11:25:00.989Z,23.20
2024-01-05T11:27:28.641Z,19.20
2024-01-05T11:29:56.434Z,20.40
2024-01-05T11:32:24.053Z,18.20
2024-01-05T11:34:51.899Z,21.00
2024-01-05T11:37:19.598Z,19.40
2024-01-05T11:39:47.418Z,18.60
2024-01-05T11:42:15.545Z,20.40
2024-01-05T11:44:43.290Z,21.50
2024-01-05T11:47:10.940Z,21.30
2024-01-05T11:49:38.574Z,20.60
2024-01-05T11:52:06.375Z,24.30
2024-01-05T11:54:33.760Z,24.10
2024-01-05T11:57:01.360Z,24.00
2024-01-05T11:59:29.152Z,27.40
2024-01-05T12:01:56.816Z,26.30
2024-01-05T12:04:24.425Z,24.70
2024-01-05T12:06:52.612Z,24.90
2024-01-05T12:09:20.249Z,21.90
2024-01-05T12:11:47.981Z,20.80
2024-01-05T12:14:15.541Z,19.60
2024-01-05T12:16:43.189Z,22.60
2024-01-05T12:19:11.024Z,22.40
2024-01-05T12:21:38.752Z,21.90
2024-01-05T12:24:06.486Z,21.10
2024-01-05T12:26:33.939Z,22.60
2024-01-05T12:29:01.598Z,28.40
2024-01-05T12:31:29.503Z,21.60
2024-01-05T12:33:57.393Z,23.30
2024-01-05T12:36:25.307Z,22.90
2024-01-05T12:38:53.088Z,28.60
2024-01-05T12:41:21.347Z,25.90
2024-01-05T12:43:49.208Z,27.70
2024-01-05T12:46:16.756Z,29.80
2024-01-05T12:48:44.517Z,29.40
2024-01-05T12:51:12.739Z,26.70
2024-01-05T12:53:40.358Z,25.40
2024-01-05T12:56:08.020Z,26.50
2024-01-05T12:58:36.128Z,30.30
2024-01-05T13:01:04.020Z,27.70
2024-01-05T13:03:31.686Z,33.40
2024-01-05T13:05:59.582Z,28.50
2024-01-05T13:08:27.255Z,26.70
2024-01-05T13:10:54.798Z,26.80
2024-01-05T13:13:22.765Z,26.50
2024-01-05T13:15:50.359Z,34.50
2024-01-05T13:18:18.202Z,35.40
2024-01-05T13:20:45.966Z,34.00
2024-01-05T13:23:15.370Z,32.20
2024-01-05T13:25:44.462Z,30.50
2024-01-05T13:28:12.141Z,36.00
2024-01-05T13:30:39.801Z,28.70
2024-01-05T13:33:07.866Z,30.20
2024-01-05T13:35:35.528Z,33.70
2024-01-05T13:38:03.200Z,32.90
2024-01-05T13:40:30.838Z,34.10
2024-01-05T13:42:58.404Z,31.10
2024-01-05T13:45:26.129Z,34.70
2024-01-05T13:47:53.831Z,38.10
2024-01-05T13:50:21.506Z,34.40
2024-01-05T13:52:49.449Z,37.10
2024-01-05T13:55:17.048Z,35.60
2024-01-05T13:57:44.808Z,36.90
2024-01-05T14:00:12.575Z,35.90
2024-01-05T14:02:40.263Z,41.30
2024-01-05T14:05:07.872Z,40.60
2024-01-05T14:07:35.421Z,46.00
2024-01-05T14:10:02.990Z,39.80
2024-01-05T14:12:30.568Z,44.60
2024-01-05T14:14:58.201Z,45.10
2024-01-05T14:17:25.894Z,44.90
2024-01-05T14:19:53.778Z,41.60
2024-01-05T14:22:21.594Z,43.50
2024-01-05T14:24:49.251Z,50.80
2024-01-05T14:27:16.924Z,48.00
2024-01-05T14:29:44.473Z,48.20
2024-01-05T14:32:12.235Z,47.90
2024-01-05T14:34:42.443Z,47.50
2024-01-05T14:37:10.335Z,48.90
2024-01-05T14:39:38.122Z,45.00
2024-01-05T14:42:05.765Z,43.00
2024-01-05T14:44:33.198Z,41.00
2024-01-05T14:47:00.754Z,40.10
2024-01-05T14:49:28.423Z,47.70
2024-01-05T14:51:56.185Z,49.70
2024-01-05T14:54:23.867Z,49.80
2024-01-05T14:56:51.812Z,68.60
2024-01-05T14:59:19.378Z,74.30
2024-01-05T15:01:46.961Z,61.10
2024-01-05T15:04:14.761Z,59.20
2024-01-05T15:06:42.735Z,54.30
2024-01-05T15:09:10.486Z,53.30
2024-01-05T15:11:38.110Z,56.90
2024-01-05T15:14:05.750Z,52.10
2024-01-05T15:16:33.433Z,60.20
2024-01-05T15:19:01.392Z,58.90
2024-01-05T15:21:29.132Z,60.20
2024-01-05T15:23:56.809Z,51.10
2024-01-05T15:26:24.487Z,53.70
2024-01-05T15:28:52.026Z,53.60
2024-01-05T15:31:19.780Z,60.60
2024-01-05T15:33:47.713Z,56.00
2024-01-05T15:36:15.452Z,53.10
2024-01-05T15:38:42.980Z,57.50
2024-01-05T15:41:10.646Z,52.20
2024-01-05T15:43:38.198Z,48.30
2024-01-05T15:46:05.888Z,42.70
2024-01-05T15:48:33.540Z,43.30
2024-01-05T15:51:01.398Z,45.20
2024-01-05T15:53:29.064Z,43.20
2024-01-05T15:55:59.074Z,51.80
2024-01-05T15:58:27.241Z,42.20
2024-01-05T16:00:55.219Z,40.40
2024-01-05T16:03:22.936Z,40.80
2024-01-05T16:05:50.889Z,43.90
2024-01-05T16:08:18.604Z,39.30
2024-01-05T16:10:46.149Z,41.50
2024-01-05T16:13:13.823Z,50.40
2024-01-05T16:15:41.516Z,54.00
2024-01-05T16:18:09.177Z,55.00
2024-01-05T16:20:37.001Z,47.90
2024-01-05T16:23:04.975Z,47.40
2024-01-05T16:25:32.637Z,51.30
2024-01-05T16:28:00.277Z,49.30
2024-01-05T16:30:28.131Z,57.10
2024-01-05T16:32:55.845Z,56.20
2024-01-05T16:35:23.492Z,60.60
2024-01-05T16:37:51.134Z,49.40
2024-01-05T16:40:18.997Z,44.00
2024-01-05T16:42:46.693Z,44.80
2024-01-05T16:45:14.368Z,48.20
2024-01-05T16:47:42.059Z,52.40
2024-01-05T16:50:09.761Z,51.20
2024-01-05T16:52:37.406Z,57.50
2024-01-05T16:55:05.099Z,62.00
2024-01-05T16:57:32.877Z,71.00
2024-01-05T17:00:00.490Z,67.00
2024-01-05T17:02:28.470Z,66.50
2024-01-05T17:04:56.051Z,65.20
2024-01-05T17:07:23.707Z,74.60
2024-01-05T17:09:51.324Z,69.70
2024-01-05T17:12:19.147Z,70.80
2024-01-05T17:14:46.791Z,73.50
2024-01-05T17:17:14.649Z,74.20
2024-01-05T17:19:42.394Z,67.80
2024-01-05T17:22:10.274Z,81.00
2024-01-05T17:24:37.676Z,78.00
2024-01-05T17:27:05.309Z,72.90
2024-01-05T17:29:33.054Z,71.00
2024-01-05T17:32:00.617Z,69.10
2024-01-05T17:34:28.273Z,66.50
2024-01-05T17:36:55.851Z,75.50
2024-01-05T17:39:23.309Z,70.10
2024-01-05T17:41:50.950Z,72.80
2024-01-05T17:44:18.617Z,75.70
2024-01-05T17:46:46.287Z,85.20
2024-01-05T17:49:14.446Z,76.30
2024-01-05T17:51:42.206Z,69.10
2024-01-05T17:54:10.009Z,60.00
2024-01-05T17:56:37.655Z,73.20
2024-01-05T17:59:05.292Z,69.00
2024-01-05T18:01:33.165Z,62.40
2024-01-05T18:04:01.366Z,60.10
2024-01-05T18:06:29.409Z,57.60
2024-01-05T18:08:57.072Z,61.00
2024-01-05T18:11:24.967Z,77.30
2024-01-05T18:13:52.699Z,59.60
2024-01-05T18:16:20.269Z,63.10
2024-01-05T18:18:48.001Z,59.90
2024-01-05T18:21:15.708Z,70.80
2024-01-05T18:23:43.338Z,74.70
2024-01-05T18:26:11.023Z,59.10
2024-01-05T18:28:38.564Z,59.20
2024-01-05T18:31:06.487Z,65.00
2024-01-05T18:33:34.281Z,61.90
2024-01-05T18:36:02.075Z,61.20
2024-01-05T18:38:29.613Z,70.00
2024-01-05T18:40:57.276Z,67.00
2024-01-05T18:43:24.944Z,62.80
2024-01-05T18:45:52.547Z,63.00
2024-01-05T18:48:20.546Z,66.20
2024-01-05T18:50:48.674Z,58.00
2024-01-05T18:53:16.297Z,78.30
2024-01-05T18:55:43.965Z,87.60
2024-01-05T18:58:11.519Z,85.40
2024-01-05T19:00:39.260Z,88.30
2024-01-05T19:03:07.047Z,99.30
2024-01-05T19:05:34.988Z,90.50
2024-01-05T19:08:02.668Z,136.60
2024-01-05T19:10:30.335Z,181.50
2024-01-05T19:12:58.278Z,131.70
2024-01-05T19:15:25.999Z,114.60
2024-01-05T19:17:53.813Z,110.70
2024-01-05T19:20:21.708Z,81.10
2024-01-05T19:22:49.356Z,77.60
2024-01-05T19:25:17.026Z,72.50
2024-01-05T19:27:44.657Z,81.80
2024-01-05T19:30:12.522Z,77.40
2024-01-05T19:32:40.620Z,82.70
2024-01-05T19:35:08.331Z,80.20
2024-01-05T19:37:36.045Z,65.30
2024-01-05T19:40:03.603Z,61.70
2024-01-05T19:42:31.201Z,56.50
2024-01-05T19:44:58.825Z,62.30
2024-01-05T19:47:26.594Z,60.00
2024-01-05T19:49:54.506Z,56.50
2024-01-05T19:52:22.630Z,48.70
2024-01-05T19:54:50.283Z,52.60
2024-01-05T19:57:17.858Z,47.70
2024-01-05T19:59:45.494Z,47.90
2024-01-05T20:02:13.061Z,50.50
2024-01-05T20:04:40.617Z,50.90
2024-01-05T20:07:08.305Z,53.60
2024-01-05T20:09:36.098Z,64.40
2024-01-05T20:12:03.871Z,70.10
2024-01-05T20:14:31.468Z,62.50
2024-01-05T20:16:59.447Z,73.40
2024-01-05T20:19:27.179Z,66.40
2024-01-05T20:21:55.014Z,77.20
2024-01-05T20:24:23.472Z,60.20
2024-01-05T20:26:51.104Z,63.70
2024-01-05T20:29:18.680Z,65.50
2024-01-05T20:31:46.407Z,52.40
2024-01-05T20:34:14.293Z,51.70
2024-01-05T20:36:41.973Z,48.30
2024-01-05T20:39:09.958Z,48.40
2024-01-05T20:41:37.595Z,55.50
2024-01-05T20:44:05.250Z,48.80
2024-01-05T20:46:32.910Z,53.10
2024-01-05T20:49:00.616Z,44.50
2024-01-05T20:51:28.479Z,43.70
2024-01-05T20:53:56.101Z,48.90
2024-01-05T20:56:23.689Z,45.70
2024-01-05T20:58:51.625Z,46.40
2024-01-05T21:01:19.388Z,45.20
2024-01-05T21:03:47.560Z,46.40
2024-01-05T21:06:15.284Z,48.90
2024-01-05T21:08:43.100Z,49.60
2024-01-05T21:11:10.756Z,54.20
2024-01-05T21:13:38.316Z,65.40
2024-01-05T21:16:05.877Z,48.00
2024-01-05T21:18:33.552Z,54.10
2024-01-05T21:21:02.248Z,54.20
2024-01-05T21:23:30.188Z,60.20
2024-01-05T21:25:57.761Z,62.10
2024-01-05T21:28:25.406Z,55.90
2024-01-05T21:30:53.148Z,54.80
2024-01-05T21:33:20.907Z,59.00
2024-01-05T21:35:48.697Z,59.20
2024-01-05T21:38:16.254Z,64.80
2024-01-05T21:40:43.706Z,56.60
2024-01-05T21:43:11.269Z,45.30
2024-01-05T21:45:38.886Z,43.90
2024-01-05T21:48:06.691Z,44.50
2024-01-05T21:50:34.475Z,41.20
2024-01-05T21:53:02.023Z,45.80
2024-01-05T21:55:29.682Z,45.00
2024-01-05T21:57:57.565Z,58.00
2024-01-05T22:00:25.267Z,66.50
2024-01-05T22:02:52.915Z,66.40
2024-01-05T22:05:20.533Z,61.80
2024-01-05T22:07:48.192Z,67.40
2024-01-05T22:10:16.203Z,71.60
2024-01-05T22:12:43.853Z,64.60
2024-01-05T22:15:11.720Z,62.70
2024-01-05T22:17:39.406Z,83.70
2024-01-05T22:20:07.587Z,75.10
2024-01-05T22:22:35.185Z,73.50
2024-01-05T22:25:02.750Z,74.80
2024-01-05T22:27:30.427Z,68.00
2024-01-05T22:29:57.964Z,66.20
2024-01-05T22:32:25.656Z,66.50
2024-01-05T22:34:53.269Z,73.10
2024-01-05T22:37:20.938Z,72.60
2024-01-05T22:39:48.639Z,67.00
2024-01-05T22:42:16.502Z,82.10
2024-01-05T22:44:44.036Z,75.60
2024-01-05T22:47:11.694Z,85.90
2024-01-05T22:49:39.461Z,79.60
2024-01-05T22:52:07.102Z,103.30
2024-01-05T22:54:34.499Z,93.80
2024-01-05T22:57:02.015Z,78.40
2024-01-05T22:59:29.698Z,74.20
2024-01-05T23:01:57.568Z,68.30
2024-01-05T23:04:25.282Z,70.50
2024-01-05T23:06:53.057Z,65.70
2024-01-05T23:09:20.793Z,67.40
2024-01-05T23:11:48.506Z,61.70
2024-01-05T23:14:16.170Z,60.50
2024-01-05T23:16:43.834Z,58.60
2024-01-05T23:19:11.582Z,56.10
2024-01-05T23:21:39.286Z,51.90
2024-01-05T23:24:07.063Z,50.30
2024-01-05T23:26:34.580Z,61.70
2024-01-05T23:29:02.137Z,85.30
2024-01-05T23:31:29.948Z,93.60
2024-01-05T23:34:07.859Z,79.70
2024-01-05T23:36:41.359Z,71.50
2024-01-05T23:39:09.104Z,61.80
2024-01-05T23:41:36.816Z,63.70
2024-01-05T23:44:04.395Z,65.00
2024-01-05T23:46:32.075Z,67.20
2024-01-05T23:48:59.802Z,72.10
2024-01-05T23:51:27.523Z,57.10
2024-01-05T23:53:55.039Z,59.80
2024-01-05T23:56:22.595Z,51.70
2024-01-05T23:58:50.246Z,49.20
